Terminal Aerodrome Forecast
Issued by NWS

Home | Current Version | Previous Version | Text Only | Print | Product List | Glossary On
Versions: 1 2 3 4 5 6 7 8 9 10 11 12 13 14 15 16 17 18 19
000
FTUS46 KEKA 311100
TAFCEC
TAF
KCEC 311133Z 3112/0112 00000KT 3/4SM BR VV002
     FM311800 22006KT 3SM BR BKN005
     FM312100 24008KT P6SM BKN005
     FM010100 23006KT 5SM BR OVC003
     FM010400 18006KT 2SM BR OVC003=

USA.gov is the U.S. government's official web portal to all federal, state and local government web resources and services.